OOCL Long Beach — VRYO4 — position and weather

sailwx.info

Track history (hours):
 
Tides and Currents Weather Stations Pressure Air Temp Water Temp Dewpoint Dewpoint Depression Visibility Wind Speed Wind Dir Waves Ship Positions

OOCL Long Beach

Last reported at 2016-Sep-22 04:08 UTC. Time now 2016-Sep-25 00:20 UTC.
Position N 31°22' E 121°35'.

Length 323 m; beam 42.8 m; draft 14.5 m.

Type: Cargo ship. MMSI: 477316000.

Date/timePositionNaut miles runAvg speedWind from/ knotsBaromVisibWave heightAir tempDewpointWater temp
2016-Sep-22 04:08N 31°22' E 121°35'0 0.0
2016-Sep-22 03:26N 31°22' E 121°35'0 0.0
2016-Sep-22 00:20N 31°22' E 121°35'0 0.0
2016-Sep-21 23:32N 31°22' E 121°35'0 0.0
2016-Sep-21 22:20N 31°22' E 121°35'0 0.0
2016-Sep-21 19:26N 31°22' E 121°35'0 0.0
2016-Sep-21 16:32N 31°22' E 121°35'0 0.0
2016-Sep-21 09:32N 31°22' E 121°35'0 0.0
2016-Sep-21 08:32N 31°22' E 121°35'2 0.7
2016-Sep-21 05:33N 31°22' E 121°38'85 7.0
2016-Sep-20 17:32N 30°35' E 122°60'51 7.2
2016-Sep-20 10:25N 29°47' E 122°42'13 7.2
2016-Sep-20 08:33N 29°41' E 122°28'1111.4
2016-Sep-20 07:33N 29°47' E 122°17'1313.3
2016-Sep-20 06:33N 29°55' E 122°05'13 0.9
2016-Sep-19 16:26N 29°57' E 121°50'3 1.8
2016-Sep-19 14:33N 29°58' E 121°54'9 9.3
2016-Sep-19 13:33N 29°56' E 122°04'1212.3
2016-Sep-19 12:33N 29°48' E 122°15'1110.6
2016-Sep-19 11:33N 29°43' E 122°26'7116.4
2016-Sep-19 07:14N 30°48' E 123°00'  
Track history (hours):
 
Tides and Currents Weather Stations Pressure Air Temp Water Temp Dewpoint Dewpoint Depression Visibility Wind Speed Wind Dir Waves Ship Positions

OOCL Long Beach

Last reported at 2016-Sep-22 04:08 UTC. Time now 2016-Sep-25 00:20 UTC.
Position N 31°22' E 121°35'.

Length 323 m; beam 42.8 m; draft 14.5 m.

Type: Cargo ship. MMSI: 477316000.

Date/timePositionNaut miles runAvg speedWind from/ knotsBaromVisibWave heightAir tempDewpointWater temp
2016-Sep-22 04:08N 31°22' E 121°35'0 0.0
2016-Sep-22 03:26N 31°22' E 121°35'0 0.0
2016-Sep-22 00:20N 31°22' E 121°35'0 0.0
2016-Sep-21 23:32N 31°22' E 121°35'0 0.0
2016-Sep-21 22:20N 31°22' E 121°35'0 0.0
2016-Sep-21 19:26N 31°22' E 121°35'0 0.0
2016-Sep-21 16:32N 31°22' E 121°35'0 0.0
2016-Sep-21 09:32N 31°22' E 121°35'0 0.0
2016-Sep-21 08:32N 31°22' E 121°35'2 0.7
2016-Sep-21 05:33N 31°22' E 121°38'85 7.0
2016-Sep-20 17:32N 30°35' E 122°60'51 7.2
2016-Sep-20 10:25N 29°47' E 122°42'13 7.2
2016-Sep-20 08:33N 29°41' E 122°28'1111.4
2016-Sep-20 07:33N 29°47' E 122°17'1313.3
2016-Sep-20 06:33N 29°55' E 122°05'13 0.9
2016-Sep-19 16:26N 29°57' E 121°50'3 1.8
2016-Sep-19 14:33N 29°58' E 121°54'9 9.3
2016-Sep-19 13:33N 29°56' E 122°04'1212.3
2016-Sep-19 12:33N 29°48' E 122°15'1110.6
2016-Sep-19 11:33N 29°43' E 122°26'7116.4
2016-Sep-19 07:14N 30°48' E 123°00'  

Dump ship's entire track history